createdAt,value
2023-04-29T00:00:22.243Z,5.73
2023-04-29T00:01:22.245Z,5.57
2023-04-29T00:02:22.279Z,5.62
2023-04-29T00:03:22.387Z,5.54
2023-04-29T00:04:22.407Z,5.78
2023-04-29T00:05:22.374Z,5.59
2023-04-29T00:06:22.366Z,5.45
2023-04-29T00:07:22.201Z,5.57
2023-04-29T00:08:22.184Z,5.53
2023-04-29T00:09:22.187Z,5.36
2023-04-29T00:10:22.179Z,5.50
2023-04-29T00:11:22.163Z,5.40
2023-04-29T00:12:22.155Z,5.45
2023-04-29T00:13:22.134Z,5.33
2023-04-29T00:14:22.118Z,5.34
2023-04-29T00:15:22.130Z,5.37
2023-04-29T00:16:22.165Z,5.39
2023-04-29T00:17:22.126Z,5.42
2023-04-29T00:18:22.112Z,5.35
2023-04-29T00:19:22.091Z,5.34
2023-04-29T00:20:22.053Z,5.35
2023-04-29T00:21:22.048Z,5.40
2023-04-29T00:22:22.041Z,5.51
2023-04-29T00:23:22.031Z,5.32
2023-04-29T00:24:22.034Z,5.37
2023-04-29T00:25:22.036Z,5.33
2023-04-29T00:26:22.024Z,5.30
2023-04-29T00:27:22.039Z,5.16
2023-04-29T00:28:22.005Z,5.18
2023-04-29T00:29:22.002Z,5.27
2023-04-29T00:30:22.005Z,5.16
2023-04-29T00:31:22.072Z,5.18
2023-04-29T00:32:22.022Z,5.23
2023-04-29T00:33:21.971Z,5.19
2023-04-29T00:34:21.969Z,5.16
2023-04-29T00:35:21.971Z,5.24
2023-04-29T00:36:21.956Z,5.13
2023-04-29T00:37:21.947Z,5.30
2023-04-29T00:38:21.939Z,5.06
2023-04-29T00:39:21.949Z,5.15
2023-04-29T00:40:21.934Z,5.06
2023-04-29T00:41:21.933Z,5.02
2023-04-29T00:42:21.920Z,5.00
2023-04-29T00:43:21.894Z,5.13
2023-04-29T00:44:21.960Z,5.03
2023-04-29T00:45:21.876Z,5.02
2023-04-29T00:46:21.890Z,4.99
2023-04-29T00:47:21.895Z,4.98
2023-04-29T00:48:21.859Z,5.07
2023-04-29T00:49:21.852Z,4.95
2023-04-29T00:50:21.833Z,5.08
2023-04-29T00:51:21.831Z,4.90
2023-04-29T00:52:21.820Z,5.00
2023-04-29T00:53:21.821Z,4.86
2023-04-29T00:54:21.812Z,4.86
2023-04-29T00:55:21.823Z,5.02
2023-04-29T00:56:21.836Z,4.94
2023-04-29T00:57:21.836Z,4.88
2023-04-29T00:58:21.821Z,4.90
2023-04-29T00:59:21.824Z,4.86
2023-04-29T01:00:21.802Z,4.91
2023-04-29T01:01:21.910Z,4.91
2023-04-29T01:02:21.860Z,4.82
2023-04-29T01:03:21.871Z,4.85
2023-04-29T01:04:21.815Z,4.96
2023-04-29T01:05:21.789Z,4.80
2023-04-29T01:06:21.790Z,4.88
2023-04-29T01:07:21.775Z,4.89
2023-04-29T01:08:21.788Z,4.85
2023-04-29T01:09:21.754Z,4.83
2023-04-29T01:10:21.756Z,4.82
2023-04-29T01:11:21.817Z,4.74
2023-04-29T01:12:21.726Z,4.81
2023-04-29T01:13:21.711Z,4.80
2023-04-29T01:14:21.722Z,4.68
2023-04-29T01:15:21.704Z,4.74
2023-04-29T01:16:21.871Z,4.60
2023-04-29T01:17:21.705Z,4.72
2023-04-29T01:18:21.702Z,4.70
2023-04-29T01:19:21.713Z,4.71
2023-04-29T01:20:21.687Z,4.65
2023-04-29T01:21:21.711Z,4.57
2023-04-29T01:22:21.668Z,4.62
2023-04-29T01:23:21.673Z,4.62
2023-04-29T01:24:21.660Z,4.68
2023-04-29T01:25:21.655Z,4.50
2023-04-29T01:26:21.658Z,4.63
2023-04-29T01:27:21.665Z,4.54
2023-04-29T01:28:21.635Z,4.64
2023-04-29T01:29:21.658Z,4.47
2023-04-29T01:30:21.648Z,4.58
2023-04-29T01:31:21.640Z,4.43
2023-04-29T01:32:21.612Z,4.51
2023-04-29T01:33:21.618Z,4.55
2023-04-29T01:34:21.605Z,4.55
2023-04-29T01:35:21.608Z,4.53
2023-04-29T01:36:21.612Z,4.45
2023-04-29T01:37:21.592Z,4.43
2023-04-29T01:38:21.612Z,4.53
2023-04-29T01:39:21.605Z,4.35
2023-04-29T01:40:21.610Z,4.37
2023-04-29T01:41:21.624Z,4.54
2023-04-29T01:42:21.625Z,4.46
2023-04-29T01:43:21.636Z,4.44
2023-04-29T01:44:21.636Z,4.34
2023-04-29T01:45:21.682Z,4.35
2023-04-29T01:46:21.740Z,4.35
2023-04-29T01:47:21.707Z,4.38
2023-04-29T01:48:21.610Z,4.35
2023-04-29T01:49:21.603Z,4.35
2023-04-29T01:50:21.591Z,4.36
2023-04-29T01:51:21.584Z,4.40
2023-04-29T01:52:21.588Z,4.35
2023-04-29T01:53:21.578Z,4.37
2023-04-29T01:54:21.572Z,4.40
2023-04-29T01:55:21.582Z,4.38
2023-04-29T01:56:21.585Z,4.30
2023-04-29T01:57:21.577Z,4.32
2023-04-29T01:58:21.567Z,4.43
2023-04-29T01:59:21.565Z,4.40
2023-04-29T02:00:21.575Z,4.41
2023-04-29T02:01:21.642Z,4.42
2023-04-29T02:02:21.692Z,4.42
2023-04-29T02:03:21.672Z,4.42
2023-04-29T02:04:21.573Z,4.37
2023-04-29T02:05:21.550Z,4.33
2023-04-29T02:06:21.546Z,4.34
2023-04-29T02:07:21.547Z,4.40
2023-04-29T02:08:21.589Z,4.27
2023-04-29T02:09:21.543Z,4.30
2023-04-29T02:10:21.556Z,4.30
2023-04-29T02:11:21.544Z,4.29
2023-04-29T02:12:21.550Z,4.33
2023-04-29T02:13:21.522Z,4.14
2023-04-29T02:14:21.522Z,4.13
2023-04-29T02:15:21.514Z,4.21
2023-04-29T02:16:21.552Z,4.27
2023-04-29T02:17:21.566Z,4.11
2023-04-29T02:18:21.501Z,4.22
2023-04-29T02:19:21.488Z,4.26
2023-04-29T02:20:21.512Z,4.10
2023-04-29T02:21:21.509Z,4.10
2023-04-29T02:22:21.486Z,4.09
2023-04-29T02:23:21.482Z,4.08
2023-04-29T02:24:21.474Z,4.09
2023-04-29T02:25:21.469Z,4.08
2023-04-29T02:26:21.501Z,4.07
2023-04-29T02:27:21.493Z,4.10
2023-04-29T02:28:21.510Z,4.11
2023-04-29T02:29:21.518Z,4.00
2023-04-29T02:30:21.532Z,4.09
2023-04-29T02:31:21.635Z,4.04
2023-04-29T02:32:21.550Z,4.06
2023-04-29T02:33:21.545Z,4.03
2023-04-29T02:34:21.578Z,4.03
2023-04-29T02:35:21.561Z,4.05
2023-04-29T02:36:21.590Z,3.95
2023-04-29T02:37:21.579Z,4.00
2023-04-29T02:38:21.577Z,3.94
2023-04-29T02:39:21.583Z,3.99
2023-04-29T02:40:21.589Z,3.97
2023-04-29T02:41:21.602Z,3.92
2023-04-29T02:42:21.613Z,3.96
2023-04-29T02:43:21.616Z,3.94
2023-04-29T02:44:21.621Z,3.87
2023-04-29T02:45:21.627Z,3.68
2023-04-29T02:46:21.723Z,3.56
2023-04-29T02:47:21.640Z,3.37
2023-04-29T02:48:21.629Z,3.20
2023-04-29T02:49:21.619Z,3.13
2023-04-29T02:50:21.627Z,2.98
2023-04-29T02:51:21.640Z,2.90
2023-04-29T02:52:21.643Z,2.77
2023-04-29T02:53:21.627Z,2.77
2023-04-29T02:54:21.657Z,2.66
2023-04-29T02:55:21.657Z,2.54
2023-04-29T02:56:21.662Z,2.42
2023-04-29T02:57:21.667Z,2.42
2023-04-29T02:58:21.693Z,2.34
2023-04-29T02:59:21.697Z,2.33
2023-04-29T03:00:21.726Z,2.22
2023-04-29T03:01:21.773Z,2.22
2023-04-29T03:02:21.833Z,2.22
2023-04-29T03:03:21.877Z,2.13
2023-04-29T03:04:22.006Z,2.11
2023-04-29T03:05:21.876Z,2.04
2023-04-29T03:06:21.895Z,1.99
2023-04-29T03:07:21.935Z,2.00
2023-04-29T03:08:21.964Z,1.97
2023-04-29T03:09:22.014Z,1.96
2023-04-29T03:10:22.068Z,1.95
2023-04-29T03:11:22.098Z,1.85
2023-04-29T03:12:22.174Z,1.82
2023-04-29T03:13:22.204Z,1.77
2023-04-29T03:14:22.253Z,1.78
2023-04-29T03:15:22.295Z,1.73
2023-04-29T03:16:22.420Z,1.73
2023-04-29T03:17:22.416Z,1.68
2023-04-29T03:18:22.458Z,1.64
2023-04-29T03:19:22.521Z,1.61
2023-04-29T03:20:22.569Z,1.62
2023-04-29T03:21:22.618Z,1.60
2023-04-29T03:22:22.691Z,1.58
2023-04-29T03:23:22.740Z,1.55
2023-04-29T03:24:22.795Z,1.54
2023-04-29T03:25:22.854Z,1.53
2023-04-29T03:26:22.923Z,1.53
2023-04-29T03:27:22.846Z,1.53
2023-04-29T03:28:22.848Z,1.47
2023-04-29T03:29:22.860Z,1.50
2023-04-29T03:30:22.876Z,1.48
2023-04-29T03:31:22.929Z,1.46
2023-04-29T03:32:22.881Z,1.43
2023-04-29T03:33:22.865Z,1.44
2023-04-29T03:34:22.848Z,1.43
2023-04-29T03:35:22.861Z,1.41
2023-04-29T03:36:22.853Z,1.39
2023-04-29T03:37:22.907Z,1.41
2023-04-29T03:38:22.954Z,1.37
2023-04-29T03:39:23.025Z,1.36
2023-04-29T03:40:23.080Z,1.36
2023-04-29T03:41:23.135Z,1.31
2023-04-29T03:42:23.200Z,1.31
2023-04-29T03:43:23.266Z,1.33
2023-04-29T03:44:23.322Z,1.28
2023-04-29T03:45:23.399Z,1.28
2023-04-29T03:46:23.478Z,1.27
2023-04-29T03:47:23.538Z,1.27
2023-04-29T03:48:23.554Z,1.26
2023-04-29T03:49:23.652Z,1.27
2023-04-29T03:50:23.702Z,1.27
2023-04-29T03:51:23.774Z,1.24
2023-04-29T03:52:23.824Z,1.25
2023-04-29T03:53:23.887Z,1.25
2023-04-29T03:54:23.978Z,1.23
2023-04-29T03:55:24.031Z,1.24
2023-04-29T03:56:24.087Z,1.24
2023-04-29T03:57:24.156Z,1.27
2023-04-29T03:58:24.240Z,1.25
2023-04-29T03:59:24.304Z,1.24
2023-04-29T04:00:24.382Z,1.24
2023-04-29T04:01:24.429Z,1.24
2023-04-29T04:02:24.716Z,1.25
2023-04-29T04:03:24.682Z,1.24
2023-04-29T04:04:24.796Z,1.25
2023-04-29T04:05:24.721Z,1.23
2023-04-29T04:06:24.784Z,1.25
2023-04-29T04:07:24.897Z,1.21
2023-04-29T04:08:24.937Z,1.22
2023-04-29T04:09:24.989Z,1.25
2023-04-29T04:10:25.070Z,1.26
2023-04-29T04:11:25.141Z,1.24
2023-04-29T04:12:25.229Z,1.27
2023-04-29T04:13:25.293Z,1.26
2023-04-29T04:14:25.369Z,1.25
2023-04-29T04:15:25.449Z,1.28
2023-04-29T04:16:25.568Z,1.28
2023-04-29T04:17:25.547Z,1.28
2023-04-29T04:18:25.607Z,1.21
2023-04-29T04:19:25.598Z,1.19
2023-04-29T04:20:25.657Z,1.24
2023-04-29T04:21:25.746Z,1.20
2023-04-29T04:22:25.799Z,1.21
2023-04-29T04:23:25.833Z,1.15
2023-04-29T04:24:25.905Z,1.23
2023-04-29T04:25:25.950Z,1.16
2023-04-29T04:26:26.021Z,1.24
2023-04-29T04:27:26.085Z,1.19
2023-04-29T04:28:26.096Z,1.18
2023-04-29T04:29:26.131Z,1.17
2023-04-29T04:30:26.148Z,1.20
2023-04-29T04:31:26.252Z,1.19
2023-04-29T04:32:26.283Z,1.18
2023-04-29T04:33:26.336Z,1.25
2023-04-29T04:34:26.410Z,1.22
2023-04-29T04:35:26.448Z,1.27
2023-04-29T04:36:26.528Z,1.28
2023-04-29T04:37:26.585Z,1.29
2023-04-29T04:38:26.628Z,1.27
2023-04-29T04:39:26.691Z,1.31
2023-04-29T04:40:26.749Z,1.29
2023-04-29T04:41:26.808Z,1.26
2023-04-29T04:42:26.861Z,1.26
2023-04-29T04:43:26.892Z,1.28
2023-04-29T04:44:26.954Z,1.24
2023-04-29T04:45:27.111Z,1.30
2023-04-29T04:46:27.088Z,1.26
2023-04-29T04:47:27.143Z,1.31
2023-04-29T04:48:27.164Z,1.27
2023-04-29T04:49:27.163Z,1.27
2023-04-29T04:50:27.207Z,1.26
2023-04-29T04:51:27.254Z,1.30
2023-04-29T04:52:27.289Z,1.30
2023-04-29T04:53:27.307Z,1.34
2023-04-29T04:54:27.328Z,1.34
2023-04-29T04:55:27.330Z,1.34
2023-04-29T04:56:27.325Z,1.34
2023-04-29T04:57:27.346Z,1.33
2023-04-29T04:58:27.340Z,1.33
2023-04-29T04:59:27.360Z,1.33
2023-04-29T05:00:27.362Z,1.31
2023-04-29T05:01:27.441Z,1.37
2023-04-29T05:02:27.499Z,1.31
2023-04-29T05:03:27.528Z,1.33
2023-04-29T05:04:27.478Z,1.31
2023-04-29T05:05:27.420Z,1.35
2023-04-29T05:06:27.448Z,1.33
2023-04-29T05:07:27.447Z,1.30
2023-04-29T05:08:27.478Z,1.34
2023-04-29T05:09:27.456Z,1.34
2023-04-29T05:10:27.489Z,1.31
2023-04-29T05:11:27.498Z,1.34
2023-04-29T05:12:27.542Z,1.40
2023-04-29T05:13:27.514Z,1.41
2023-04-29T05:14:27.530Z,1.38
2023-04-29T05:15:27.556Z,1.38
2023-04-29T05:16:27.606Z,1.37
2023-04-29T05:17:27.616Z,1.35
2023-04-29T05:18:27.596Z,1.36
2023-04-29T05:19:27.592Z,1.39
2023-04-29T05:20:27.616Z,1.43
2023-04-29T05:21:27.631Z,1.37
2023-04-29T05:22:27.637Z,1.40
2023-04-29T05:23:27.652Z,1.44
2023-04-29T05:24:27.658Z,1.35
2023-04-29T05:25:27.672Z,1.33
2023-04-29T05:26:27.672Z,1.38
2023-04-29T05:27:27.689Z,1.43
2023-04-29T05:28:28.459Z,1.44
2023-04-29T05:29:27.722Z,1.42
2023-04-29T05:30:27.717Z,1.38
2023-04-29T05:31:27.749Z,1.40
2023-04-29T05:32:27.776Z,1.40
2023-04-29T05:33:27.747Z,1.37
2023-04-29T05:34:27.763Z,1.42
2023-04-29T05:35:27.776Z,1.42
2023-04-29T05:36:27.790Z,1.40
2023-04-29T05:37:27.814Z,1.42
2023-04-29T05:38:27.815Z,1.47
2023-04-29T05:39:27.868Z,1.38
2023-04-29T05:40:27.858Z,1.43
2023-04-29T05:41:27.871Z,1.36
2023-04-29T05:42:27.882Z,1.39
2023-04-29T05:43:27.999Z,1.41
2023-04-29T05:44:27.905Z,1.47
2023-04-29T05:45:27.921Z,1.34
2023-04-29T05:46:27.992Z,1.44
2023-04-29T05:47:27.978Z,1.39
2023-04-29T05:48:27.935Z,1.37
2023-04-29T05:49:27.952Z,1.38
2023-04-29T05:50:27.975Z,1.48
2023-04-29T05:51:28.011Z,1.49
2023-04-29T05:52:28.009Z,1.44
2023-04-29T05:53:28.003Z,1.46
2023-04-29T05:54:28.023Z,1.37
2023-04-29T05:55:28.024Z,1.44
2023-04-29T05:56:28.039Z,1.41
2023-04-29T05:57:28.062Z,1.41
2023-04-29T05:58:28.064Z,1.39
2023-04-29T05:59:28.085Z,1.42
2023-04-29T06:00:28.081Z,1.37
2023-04-29T06:01:28.106Z,1.38
2023-04-29T06:02:28.314Z,1.39
2023-04-29T06:03:28.266Z,1.37
2023-04-29T06:04:28.389Z,1.36
2023-04-29T06:05:28.710Z,1.43
2023-04-29T06:06:28.211Z,1.42
2023-04-29T06:07:28.185Z,1.39
2023-04-29T06:08:28.201Z,1.39
2023-04-29T06:09:28.497Z,1.41
2023-04-29T06:10:28.300Z,1.43
2023-04-29T06:11:28.281Z,1.39
2023-04-29T06:12:28.307Z,1.42
2023-04-29T06:13:28.337Z,1.43
2023-04-29T06:14:28.345Z,1.42
2023-04-29T06:15:28.369Z,1.38
2023-04-29T06:16:28.424Z,1.41
2023-04-29T06:17:28.413Z,1.45
2023-04-29T06:18:28.417Z,1.39
2023-04-29T06:19:28.467Z,1.45
2023-04-29T06:20:28.524Z,1.47
2023-04-29T06:21:28.492Z,1.45
2023-04-29T06:22:28.573Z,1.44
2023-04-29T06:23:28.510Z,1.43
2023-04-29T06:24:28.541Z,1.38
2023-04-29T06:25:28.548Z,1.47
2023-04-29T06:26:28.556Z,1.44
2023-04-29T06:27:28.584Z,1.37
2023-04-29T06:28:28.590Z,1.38
2023-04-29T06:29:28.608Z,1.35
2023-04-29T06:30:28.639Z,1.45
2023-04-29T06:31:28.701Z,1.34
2023-04-29T06:32:28.708Z,1.35
2023-04-29T06:33:28.681Z,1.33
2023-04-29T06:34:28.735Z,1.33
2023-04-29T06:35:28.717Z,1.27
2023-04-29T06:36:28.724Z,1.36
2023-04-29T06:37:28.793Z,1.36
2023-04-29T06:38:28.757Z,1.34
2023-04-29T06:39:28.788Z,1.37
2023-04-29T06:40:28.896Z,1.36
2023-04-29T06:41:28.827Z,1.28
2023-04-29T06:42:28.845Z,1.35
2023-04-29T06:43:28.851Z,1.31
2023-04-29T06:44:28.872Z,1.34
2023-04-29T06:45:28.915Z,1.27
2023-04-29T06:46:28.949Z,1.36
2023-04-29T06:47:28.966Z,1.25
2023-04-29T06:48:28.932Z,1.24
2023-04-29T06:49:28.964Z,1.27
2023-04-29T06:50:28.976Z,1.29
2023-04-29T06:51:29.002Z,1.26
2023-04-29T06:52:29.016Z,1.30
2023-04-29T06:53:29.042Z,1.19
2023-04-29T06:54:29.044Z,1.18
2023-04-29T06:55:29.054Z,1.23
2023-04-29T06:56:29.067Z,1.21
2023-04-29T06:57:29.097Z,1.20
2023-04-29T06:58:29.104Z,1.15
2023-04-29T06:59:29.110Z,1.18
2023-04-29T07:00:29.142Z,1.16
2023-04-29T07:01:29.179Z,1.15
2023-04-29T07:02:29.381Z,1.24
2023-04-29T07:03:29.290Z,1.19
2023-04-29T07:04:29.409Z,1.13
2023-04-29T07:05:29.362Z,1.28
2023-04-29T07:06:29.425Z,1.22
2023-04-29T07:07:29.497Z,1.27
2023-04-29T07:08:29.576Z,1.21
2023-04-29T07:09:29.639Z,1.19
2023-04-29T07:10:29.717Z,1.21
2023-04-29T07:11:29.773Z,1.23
2023-04-29T07:12:29.860Z,1.17
2023-04-29T07:13:29.872Z,1.20
2023-04-29T07:14:29.939Z,1.11
2023-04-29T07:15:29.989Z,1.05
2023-04-29T07:16:30.094Z,1.00
2023-04-29T07:17:30.177Z,1.00
2023-04-29T07:18:30.177Z,1.01
2023-04-29T07:19:30.252Z,1.00
2023-04-29T07:20:30.313Z,1.02
2023-04-29T07:21:30.366Z,1.04
2023-04-29T07:22:30.443Z,1.06
2023-04-29T07:23:30.514Z,1.04
2023-04-29T07:24:30.657Z,1.06
2023-04-29T07:25:30.659Z,1.03
2023-04-29T07:26:30.732Z,0.96
2023-04-29T07:27:30.814Z,0.91
2023-04-29T07:28:30.899Z,0.94
2023-04-29T07:29:30.971Z,0.91
2023-04-29T07:30:31.044Z,0.88
2023-04-29T07:31:31.210Z,0.85
2023-04-29T07:32:31.209Z,0.80
2023-04-29T07:33:31.262Z,0.79
2023-04-29T07:34:31.323Z,0.75
2023-04-29T07:35:31.390Z,0.72
2023-04-29T07:36:31.488Z,0.69
2023-04-29T07:37:31.496Z,0.69
2023-04-29T07:38:31.456Z,0.69
2023-04-29T07:39:31.467Z,0.68
2023-04-29T07:40:31.474Z,0.67
2023-04-29T07:41:31.470Z,0.67
2023-04-29T07:42:31.473Z,0.66
2023-04-29T07:43:31.498Z,0.64
2023-04-29T07:44:31.488Z,0.63
2023-04-29T07:45:31.504Z,0.62
2023-04-29T07:46:31.610Z,0.61
2023-04-29T07:47:31.651Z,0.59
2023-04-29T07:48:31.692Z,0.57
2023-04-29T07:49:31.747Z,0.57
2023-04-29T07:50:31.807Z,0.57
2023-04-29T07:51:31.811Z,0.56
2023-04-29T07:52:31.822Z,0.57
2023-04-29T07:53:31.804Z,0.53
2023-04-29T07:54:31.807Z,0.51
2023-04-29T07:55:31.811Z,0.49
2023-04-29T07:56:31.820Z,0.47
2023-04-29T07:57:31.831Z,0.47
2023-04-29T07:58:31.820Z,0.46
2023-04-29T07:59:31.830Z,0.53
2023-04-29T08:00:31.820Z,0.51
2023-04-29T08:01:31.826Z,0.51
2023-04-29T08:02:32.017Z,0.51
2023-04-29T08:03:31.935Z,0.46
2023-04-29T08:04:32.117Z,0.45
2023-04-29T08:05:32.027Z,0.43
2023-04-29T08:06:31.835Z,0.50
2023-04-29T08:07:31.845Z,0.51
2023-04-29T08:08:31.841Z,0.50
2023-04-29T08:09:31.839Z,0.50
2023-04-29T08:10:31.832Z,0.50
2023-04-29T08:11:31.841Z,0.52
2023-04-29T08:12:31.874Z,0.51
2023-04-29T08:13:31.942Z,0.52
2023-04-29T08:14:31.981Z,0.51
2023-04-29T08:15:32.026Z,0.51
2023-04-29T08:16:32.178Z,0.52
2023-04-29T08:17:32.436Z,0.54
2023-04-29T08:18:32.410Z,0.51
2023-04-29T08:19:32.221Z,0.52
2023-04-29T08:20:32.241Z,0.50
2023-04-29T08:21:32.308Z,0.52
2023-04-29T08:22:32.331Z,0.52
2023-04-29T08:23:32.394Z,0.53
2023-04-29T08:24:32.433Z,0.50
2023-04-29T08:25:32.476Z,0.51
2023-04-29T08:26:32.514Z,0.50
2023-04-29T08:27:32.555Z,0.51
2023-04-29T08:28:32.616Z,0.51
2023-04-29T08:29:32.660Z,0.52
2023-04-29T08:30:32.678Z,0.50
2023-04-29T08:31:32.741Z,0.50
2023-04-29T08:32:32.819Z,0.52
2023-04-29T08:33:32.824Z,0.52
2023-04-29T08:34:32.840Z,0.52
2023-04-29T08:35:32.902Z,0.52
2023-04-29T08:36:32.924Z,0.52
2023-04-29T08:37:32.948Z,0.51
2023-04-29T08:38:32.999Z,0.52
2023-04-29T08:39:33.018Z,0.51
2023-04-29T08:40:33.047Z,0.54
2023-04-29T08:41:33.110Z,0.55
2023-04-29T08:42:33.147Z,0.51
2023-04-29T08:43:33.165Z,0.54
2023-04-29T08:44:33.178Z,0.51
2023-04-29T08:45:33.246Z,0.54
2023-04-29T08:46:33.255Z,0.50
2023-04-29T08:47:33.725Z,0.52
2023-04-29T08:48:33.415Z,0.60
2023-04-29T08:49:33.363Z,0.82
2023-04-29T08:50:33.389Z,0.87
2023-04-29T08:51:33.425Z,0.94
2023-04-29T08:52:33.448Z,1.02
2023-04-29T08:53:33.472Z,1.04
2023-04-29T08:54:33.496Z,1.08
2023-04-29T08:55:33.532Z,1.24
2023-04-29T08:56:33.513Z,1.29
2023-04-29T08:57:33.545Z,1.35
2023-04-29T08:58:33.539Z,1.45
2023-04-29T08:59:33.538Z,1.52
2023-04-29T09:00:33.601Z,1.61
2023-04-29T09:01:33.554Z,1.68
2023-04-29T09:02:33.610Z,1.79
2023-04-29T09:03:33.656Z,1.80
2023-04-29T09:04:33.578Z,1.89
2023-04-29T09:05:33.529Z,1.96
2023-04-29T09:06:33.541Z,2.08
2023-04-29T09:07:33.553Z,2.18
2023-04-29T09:08:33.584Z,2.18
2023-04-29T09:09:33.638Z,2.35
2023-04-29T09:10:33.660Z,2.53
2023-04-29T09:11:33.635Z,2.65
2023-04-29T09:12:33.661Z,2.74
2023-04-29T09:13:33.690Z,2.78
2023-04-29T09:14:33.744Z,2.90
2023-04-29T09:15:33.743Z,3.08
2023-04-29T09:16:33.917Z,3.11
2023-04-29T09:17:33.868Z,3.13
2023-04-29T09:18:33.892Z,3.26
2023-04-29T09:19:33.945Z,3.43
2023-04-29T09:20:34.000Z,3.58
2023-04-29T09:21:34.062Z,3.73
2023-04-29T09:22:34.118Z,3.94
2023-04-29T09:23:34.206Z,4.13
2023-04-29T09:24:34.217Z,4.17
2023-04-29T09:25:34.265Z,4.26
2023-04-29T09:26:34.315Z,4.43
2023-04-29T09:27:34.358Z,4.54
2023-04-29T09:28:34.415Z,4.70
2023-04-29T09:29:34.441Z,4.80
2023-04-29T09:30:34.503Z,4.93
2023-04-29T09:31:34.572Z,5.13
2023-04-29T09:32:35.467Z,5.06
2023-04-29T09:33:34.648Z,5.23
2023-04-29T09:34:34.627Z,5.44
2023-04-29T09:35:34.654Z,5.42
2023-04-29T09:36:34.687Z,5.56
2023-04-29T09:37:34.718Z,5.60
2023-04-29T09:38:34.750Z,5.74
2023-04-29T09:39:34.769Z,5.86
2023-04-29T09:40:43.380Z,5.89
2023-04-29T09:41:35.779Z,5.90
2023-04-29T09:42:34.762Z,5.96
2023-04-29T09:43:34.762Z,6.01
2023-04-29T09:44:34.792Z,6.11
2023-04-29T09:45:34.735Z,6.36
2023-04-29T09:46:34.881Z,6.35
2023-04-29T09:47:34.737Z,6.36
2023-04-29T09:48:34.721Z,6.47
2023-04-29T09:49:34.685Z,6.67
2023-04-29T09:50:34.677Z,6.66
2023-04-29T09:51:34.676Z,6.64
2023-04-29T09:52:34.654Z,6.71
2023-04-29T09:53:34.666Z,6.80
2023-04-29T09:54:34.652Z,6.83
2023-04-29T09:55:34.635Z,6.87
2023-04-29T09:56:34.623Z,6.99
2023-04-29T09:57:34.624Z,7.09
2023-04-29T09:58:34.632Z,7.15
2023-04-29T09:59:34.597Z,7.19
2023-04-29T10:00:34.590Z,7.14
2023-04-29T10:01:34.641Z,7.16
2023-04-29T10:02:34.613Z,7.12
2023-04-29T10:03:34.693Z,7.19
2023-04-29T10:04:34.642Z,7.37
2023-04-29T10:05:34.516Z,7.26
2023-04-29T10:06:34.529Z,7.41
2023-04-29T10:07:34.495Z,7.39
2023-04-29T10:08:34.544Z,7.48
2023-04-29T10:09:34.462Z,7.31
2023-04-29T10:10:34.451Z,7.20
2023-04-29T10:11:34.435Z,7.38
2023-04-29T10:12:34.418Z,7.41
2023-04-29T10:13:34.427Z,7.39
2023-04-29T10:14:34.386Z,7.30
2023-04-29T10:15:34.419Z,7.32
2023-04-29T10:16:34.518Z,7.28
2023-04-29T10:17:34.360Z,7.43
2023-04-29T10:18:34.390Z,7.33
2023-04-29T10:19:34.404Z,7.45
2023-04-29T10:20:34.458Z,7.52
2023-04-29T10:21:34.485Z,7.39
2023-04-29T10:22:34.544Z,7.35
2023-04-29T10:23:34.599Z,7.57
2023-04-29T10:24:34.639Z,7.43
2023-04-29T10:25:34.689Z,7.29
2023-04-29T10:26:34.758Z,7.40
2023-04-29T10:27:34.810Z,7.44
2023-04-29T10:28:35.005Z,7.39
2023-04-29T10:29:34.892Z,7.49
2023-04-29T10:30:34.954Z,7.61
2023-04-29T10:31:35.011Z,7.56
2023-04-29T10:32:43.757Z,7.53
2023-04-29T10:33:36.053Z,7.55
2023-04-29T10:34:35.000Z,7.56
2023-04-29T10:35:34.998Z,7.58
2023-04-29T10:36:35.026Z,7.65
2023-04-29T10:37:34.958Z,7.80
2023-04-29T10:38:34.966Z,7.70
2023-04-29T10:39:34.913Z,7.59
2023-04-29T10:40:34.915Z,7.67
2023-04-29T10:41:34.969Z,7.69
2023-04-29T10:42:35.016Z,7.75
2023-04-29T10:43:35.087Z,7.74
2023-04-29T10:44:35.150Z,7.63
2023-04-29T10:45:35.176Z,7.72
2023-04-29T10:46:35.292Z,7.62
2023-04-29T10:47:35.328Z,7.45
2023-04-29T10:48:35.265Z,7.46
2023-04-29T10:49:35.214Z,7.48
2023-04-29T10:50:35.212Z,7.51
2023-04-29T10:51:35.179Z,7.60
2023-04-29T10:52:35.219Z,7.72
2023-04-29T10:53:35.155Z,7.69
2023-04-29T10:54:35.135Z,7.56
2023-04-29T10:55:35.128Z,7.75
2023-04-29T10:56:35.105Z,7.54
2023-04-29T10:57:35.150Z,7.61
2023-04-29T10:58:35.197Z,7.66
2023-04-29T10:59:35.229Z,7.49
2023-04-29T11:00:35.268Z,7.54
2023-04-29T11:01:35.414Z,7.41
2023-04-29T11:02:35.404Z,7.58
2023-04-29T11:03:35.565Z,7.54
2023-04-29T11:04:35.452Z,7.44
2023-04-29T11:05:35.470Z,7.57
2023-04-29T11:06:35.526Z,7.66
2023-04-29T11:07:35.596Z,7.47
2023-04-29T11:08:35.652Z,7.54
2023-04-29T11:09:35.673Z,7.40
2023-04-29T11:10:35.732Z,7.47
2023-04-29T11:11:35.776Z,7.67
2023-04-29T11:12:35.832Z,7.59
2023-04-29T11:13:35.863Z,7.48
2023-04-29T11:14:35.922Z,7.37
2023-04-29T11:15:35.947Z,7.42
2023-04-29T11:16:36.046Z,7.53
2023-04-29T11:17:36.049Z,7.71
2023-04-29T11:18:36.078Z,7.42
2023-04-29T11:19:36.126Z,7.60
2023-04-29T11:20:36.148Z,7.38
2023-04-29T11:21:36.196Z,7.42
2023-04-29T11:22:36.228Z,7.35
2023-04-29T11:23:36.272Z,7.38
2023-04-29T11:24:36.330Z,7.40
2023-04-29T11:25:38.758Z,7.46
2023-04-29T11:26:36.378Z,7.50
2023-04-29T11:27:36.318Z,7.32
2023-04-29T11:28:36.271Z,7.40
2023-04-29T11:29:36.248Z,7.26
2023-04-29T11:30:36.246Z,7.32
2023-04-29T11:31:36.325Z,7.43
2023-04-29T11:32:36.259Z,7.25
2023-04-29T11:33:36.224Z,7.46
2023-04-29T11:34:36.153Z,7.13
2023-04-29T11:35:36.126Z,7.20
2023-04-29T11:36:36.113Z,7.22
2023-04-29T11:37:36.087Z,7.18
2023-04-29T11:38:36.069Z,7.13
2023-04-29T11:39:36.046Z,7.24
2023-04-29T11:40:36.008Z,7.26
2023-04-29T11:41:36.004Z,7.27
2023-04-29T11:42:35.951Z,7.12
2023-04-29T11:43:35.952Z,7.01
2023-04-29T11:44:35.916Z,7.12
2023-04-29T11:45:35.884Z,7.14
2023-04-29T11:46:35.894Z,7.18
2023-04-29T11:47:35.852Z,7.23
2023-04-29T11:48:35.814Z,7.30
2023-04-29T11:49:35.769Z,7.41
2023-04-29T11:50:35.762Z,7.26
2023-04-29T11:51:35.717Z,7.30
2023-04-29T11:52:35.710Z,7.09
2023-04-29T11:53:35.671Z,6.91
2023-04-29T11:54:35.645Z,6.96
2023-04-29T11:55:35.620Z,6.95
2023-04-29T11:56:35.601Z,7.01
2023-04-29T11:57:35.604Z,7.04
2023-04-29T11:58:35.650Z,7.05
2023-04-29T11:59:35.631Z,6.90
2023-04-29T12:00:35.662Z,6.98
2023-04-29T12:01:35.674Z,7.09
2023-04-29T12:02:35.837Z,6.95
2023-04-29T12:03:35.944Z,7.00
2023-04-29T12:04:35.889Z,6.96
2023-04-29T12:05:35.787Z,6.98
2023-04-29T12:06:35.737Z,6.95
2023-04-29T12:07:35.746Z,7.06
2023-04-29T12:08:35.878Z,6.93
2023-04-29T12:09:35.778Z,7.04
2023-04-29T12:10:35.788Z,6.91
2023-04-29T12:11:35.814Z,6.94
2023-04-29T12:12:35.904Z,6.94
2023-04-29T12:13:35.856Z,6.87
2023-04-29T12:14:35.848Z,6.93
2023-04-29T12:15:36.338Z,6.92
2023-04-29T12:16:35.924Z,6.96
2023-04-29T12:17:35.926Z,6.83
2023-04-29T12:18:35.905Z,6.76
2023-04-29T12:19:35.904Z,6.93
2023-04-29T12:20:35.928Z,6.94
2023-04-29T12:21:35.931Z,6.91
2023-04-29T12:22:35.970Z,6.91
2023-04-29T12:23:35.980Z,6.87
2023-04-29T12:24:35.988Z,6.89
2023-04-29T12:25:35.999Z,6.91
2023-04-29T12:26:36.023Z,6.86
2023-04-29T12:27:36.065Z,6.69
2023-04-29T12:28:36.077Z,6.74
2023-04-29T12:29:36.095Z,6.77
2023-04-29T12:30:36.097Z,6.90
2023-04-29T12:31:36.147Z,6.73
2023-04-29T12:32:36.163Z,6.66
2023-04-29T12:33:36.173Z,6.82
2023-04-29T12:34:36.145Z,6.83
2023-04-29T12:35:36.126Z,6.83
2023-04-29T12:36:36.070Z,6.84
2023-04-29T12:37:36.029Z,6.85
2023-04-29T12:38:36.005Z,6.91
2023-04-29T12:39:35.981Z,6.89
2023-04-29T12:40:35.955Z,6.91
2023-04-29T12:41:35.914Z,6.87
2023-04-29T12:42:35.893Z,6.91
2023-04-29T12:43:35.862Z,6.85
2023-04-29T12:44:35.876Z,6.82
2023-04-29T12:45:35.799Z,6.84
2023-04-29T12:46:35.835Z,6.78
2023-04-29T12:47:35.844Z,6.75
2023-04-29T12:48:35.911Z,6.79
2023-04-29T12:49:35.855Z,6.77
2023-04-29T12:50:35.882Z,6.69
2023-04-29T12:51:35.907Z,6.80
2023-04-29T12:52:36.856Z,6.78
2023-04-29T12:53:35.935Z,6.58
2023-04-29T12:54:35.963Z,6.63
2023-04-29T12:55:35.984Z,6.49
2023-04-29T12:56:35.980Z,6.58
2023-04-29T12:57:35.997Z,6.49
2023-04-29T12:58:36.022Z,6.43
2023-04-29T12:59:36.032Z,6.58
2023-04-29T13:00:36.027Z,6.59
2023-04-29T13:01:36.018Z,6.59
2023-04-29T13:02:36.808Z,6.63
2023-04-29T13:03:36.159Z,6.45
2023-04-29T13:04:35.966Z,6.47
2023-04-29T13:05:35.861Z,6.47
2023-04-29T13:06:35.843Z,6.59
2023-04-29T13:07:37.056Z,6.57
2023-04-29T13:08:35.777Z,6.43
2023-04-29T13:09:35.774Z,6.35
2023-04-29T13:10:35.737Z,6.52
2023-04-29T13:11:35.689Z,6.45
2023-04-29T13:12:35.678Z,6.46
2023-04-29T13:13:35.801Z,6.35
2023-04-29T13:14:35.675Z,6.43
2023-04-29T13:15:35.692Z,6.29
2023-04-29T13:16:36.589Z,6.34
2023-04-29T13:17:35.717Z,6.33
2023-04-29T13:18:36.590Z,6.24